Time;durP1;ratioP1;P1;durP2;ratioP2;P2;SDS_P1;SDS_P2;PMS_P1;PMS_P2;Temp;Humidity;BMP_temperature;BMP_pressure;BME280_temperature;BME280_humidity;BME280_pressure;Samples;Min_cycle;Max_cycle;Signal;HPM_P1;HPM_P2
2022/11/30 00:01:12;;;;;;;;;;;;;;;11.76;62.83;102174.56;4945605;28;122867;-69
2022/11/30 00:03:39;;;;;;;;;;;;;;;11.76;62.83;102173.69;4958415;28;120086;-69
2022/11/30 00:06:07;;;;;;;;;;;;;;;11.76;62.86;102163.94;4964690;28;119805;-69
2022/11/30 00:08:34;;;;;;;;;;;;;;;11.74;62.96;102176.38;4967372;28;124772;-69
2022/11/30 00:11:06;;;;;;;;;;;;;;;11.74;62.84;102176.38;4970342;28;124200;-69
2022/11/30 00:13:33;;;;;;;;;;;;;;;11.73;62.77;102174.63;4959415;28;119538;-69
2022/11/30 00:16:00;;;;;;;;;;;;;;;11.74;62.93;102181.69;4970686;28;118861;-69
2022/11/30 00:18:27;;;;;;;;;;;;;;;11.73;62.86;102164.03;4966351;28;124126;-69
2022/11/30 00:20:56;;;;;;;;;;;;;;;11.74;62.92;102176.38;4970408;28;123652;-69
2022/11/30 00:23:22;;;;;;;;;;;;;;;11.74;62.93;102176.38;4973031;28;119540;-69
2022/11/30 00:25:49;;;;;;;;;;;;;;;11.76;62.95;102173.69;4948349;28;118873;-69
2022/11/30 00:28:16;;;;;;;;;;;;;;;11.76;62.89;102179.00;4954991;28;122749;-69
2022/11/30 00:30:43;;;;;;;;;;;;;;;11.75;62.89;102175.47;4970459;28;123983;-69
2022/11/30 00:33:10;;;;;;;;;;;;;;;11.75;62.93;102172.81;4968230;28;119756;-69
2022/11/30 00:35:37;;;;;;;;;;;;;;;11.76;62.87;102169.25;4936403;28;117841;-69
2022/11/30 00:38:04;;;;;;;;;;;;;;;11.77;62.83;102181.63;4964454;28;124259;-68
2022/11/30 00:40:30;;;;;;;;;;;;;;;11.78;63.04;102172.72;4962381;28;124813;-69
2022/11/30 00:42:57;;;;;;;;;;;;;;;11.79;62.70;102174.47;4963497;28;119985;-69
2022/11/30 00:45:24;;;;;;;;;;;;;;;11.79;62.92;102174.47;4948983;28;118047;-69
2022/11/30 00:47:51;;;;;;;;;;;;;;;11.79;62.96;102174.47;4959832;28;124744;-69
2022/11/30 00:50:18;;;;;;;;;;;;;;;11.79;63.00;102169.19;4967346;28;124201;-69
2022/11/30 00:52:46;;;;;;;;;;;;;;;11.80;62.91;102170.91;4969182;28;96888;-69
2022/11/30 00:55:13;;;;;;;;;;;;;;;11.81;62.83;102177.97;4961201;28;120261;-69
2022/11/30 00:57:39;;;;;;;;;;;;;;;11.79;62.82;102169.19;4966835;28;124451;-69
2022/11/30 01:00:07;;;;;;;;;;;;;;;11.79;62.99;102179.78;4966655;28;124032;-69
2022/11/30 01:02:34;;;;;;;;;;;;;;;11.78;62.86;102182.47;4961818;28;119830;-69
2022/11/30 01:05:01;;;;;;;;;;;;;;;11.77;62.88;102176.31;4952499;28;119535;-69
2022/11/30 01:07:28;;;;;;;;;;;;;;;11.76;62.90;102169.25;4969982;28;125043;-68
2022/11/30 01:09:55;;;;;;;;;;;;;;;11.76;62.85;102179.00;4969413;28;124672;-68
2022/11/30 01:12:22;;;;;;;;;;;;;;;11.74;62.92;102171.09;4969262;28;119817;-68
2022/11/30 01:14:49;;;;;;;;;;;;;;;11.73;62.87;102185.25;4948513;28;117763;-69
2022/11/30 01:17:16;;;;;;;;;;;;;;;11.72;62.89;102177.38;4962443;28;125051;-69
2022/11/30 01:19:43;;;;;;;;;;;;;;;11.70;62.85;102180.06;4965230;28;124108;-69
2022/11/30 01:22:10;;;;;;;;;;;;;;;11.70;62.85;102185.34;4968983;28;119768;-69
2022/11/30 01:24:37;;;;;;;;;;;;;;;11.69;62.94;102183.59;4966827;28;118690;-68
2022/11/30 01:27:03;;;;;;;;;;;;;;;11.69;62.90;102194.22;4969357;28;124725;-69
2022/11/30 01:29:30;;;;;;;;;;;;;;;11.68;62.83;102192.50;4971607;28;123764;-69
2022/11/30 01:31:57;;;;;;;;;;;;;;;11.67;62.77;102201.34;4970332;28;118872;-69
2022/11/30 01:34:24;;;;;;;;;;;;;;;11.63;62.65;102200.56;4942082;28;118031;-69
2022/11/30 01:36:51;;;;;;;;;;;;;;;11.61;62.73;102206.84;4942965;28;124829;-68
2022/11/30 01:39:18;;;;;;;;;;;;;;;11.58;62.86;102202.47;4945800;28;124232;-68
2022/11/30 01:41:44;;;;;;;;;;;;;;;11.55;62.64;102202.56;4960240;28;120818;-69
2022/11/30 01:44:14;;;;;;;;;;;;;;;11.52;62.71;102201.78;4947359;28;119019;-69
2022/11/30 01:46:54;;;;;;;;;;;;;;;11.47;62.72;102208.09;4961084;28;125300;-69
2022/11/30 01:49:33;;;;;;;;;;;;;;;11.44;62.83;102210.81;4967023;28;125052;-68
2022/11/30 01:52:02;;;;;;;;;;;;;;;11.41;62.71;102210.88;4964788;28;120204;-69
2022/11/30 01:54:32;;;;;;;;;;;;;;;11.38;62.73;102208.34;4967975;28;118701;-69
2022/11/30 01:57:03;;;;;;;;;;;;;;;11.37;62.79;102211.88;4948790;28;123713;-69
2022/11/30 01:59:30;;;;;;;;;;;;;;;11.37;62.93;102209.22;4947575;28;125001;-69
2022/11/30 02:01:57;;;;;;;;;;;;;;;11.37;62.63;102209.22;4964529;28;118544;-69
2022/11/30 02:04:27;;;;;;;;;;;;;;;11.37;62.96;102219.84;4962776;28;119220;-69
2022/11/30 02:06:55;;;;;;;;;;;;;;;11.39;62.73;102218.00;4956076;28;124890;-68
2022/11/30 02:09:22;;;;;;;;;;;;;;;11.39;62.81;102215.38;4955431;28;124859;-69
2022/11/30 02:11:49;;;;;;;;;;;;;;;11.42;62.75;102212.63;4966245;28;118625;-69
2022/11/30 02:14:29;;;;;;;;;;;;;;;11.42;62.97;102217.94;4971103;28;118964;-68
2022/11/30 02:17:10;;;;;;;;;;;;;;;11.42;62.94;102225.91;4960021;28;123686;-69
2022/11/30 02:19:47;;;;;;;;;;;;;;;11.44;62.46;102215.25;4975012;28;123350;-69
2022/11/30 02:22:20;;;;;;;;;;;;;;;11.42;62.61;102223.25;4968676;28;119292;-68
2022/11/30 02:24:47;;;;;;;;;;;;;;;11.41;62.69;102226.81;4977966;28;118123;-69
2022/11/30 02:27:20;;;;;;;;;;;;;;;11.40;62.73;102219.78;4972003;28;125091;-68
2022/11/30 02:29:59;;;;;;;;;;;;;;;11.40;62.70;102214.47;4967054;28;124057;-68
2022/11/30 02:32:33;;;;;;;;;;;;;;;11.41;62.84;102221.50;4973936;28;121088;-68
2022/11/30 02:35:01;;;;;;;;;;;;;;;11.42;62.81;102228.56;4968470;28;120188;-68
2022/11/30 02:37:28;;;;;;;;;;;;;;;11.42;62.76;102223.25;4967764;28;123917;-69
2022/11/30 02:39:56;;;;;;;;;;;;;;;11.43;62.70;102225.00;4966887;28;124276;-69
2022/11/30 02:42:23;;;;;;;;;;;;;;;11.42;62.81;102223.25;4970995;28;118770;-69
2022/11/30 02:44:51;;;;;;;;;;;;;;;11.43;62.82;102225.00;4953340;28;118219;-68
2022/11/30 02:47:30;;;;;;;;;;;;;;;11.43;62.77;102219.69;4963813;28;124168;-69
2022/11/30 02:50:03;;;;;;;;;;;;;;;11.42;62.68;102223.25;4953304;28;124253;-69
2022/11/30 02:52:30;;;;;;;;;;;;;;;11.42;62.70;102223.25;4958420;28;119313;-69
2022/11/30 02:55:02;;;;;;;;;;;;;;;11.42;62.66;102223.25;4958890;28;118510;-68
2022/11/30 02:57:29;;;;;;;;;;;;;;;11.41;62.64;102221.50;4964191;28;124900;-69
2022/11/30 02:59:57;;;;;;;;;;;;;;;11.40;62.75;102225.06;4944086;28;122963;-69
2022/11/30 03:02:24;;;;;;;;;;;;;;;11.39;62.71;102223.31;4940513;28;119334;-69
2022/11/30 03:04:51;;;;;;;;;;;;;;;11.38;62.77;102221.59;4963179;28;118576;-69
2022/11/30 03:07:18;;;;;;;;;;;;;;;11.38;62.77;102221.59;4956448;28;123461;-68
2022/11/30 03:09:44;;;;;;;;;;;;;;;11.37;62.74;102219.84;4941089;28;125952;-69
2022/11/30 03:12:11;;;;;;;;;;;;;;;11.38;62.63;102223.38;4964528;28;120052;-69
2022/11/30 03:14:38;;;;;;;;;;;;;;;11.37;62.66;102219.84;4962545;28;118522;-69
2022/11/30 03:17:05;;;;;;;;;;;;;;;11.37;62.76;102219.84;4959958;28;125083;-69
2022/11/30 03:19:33;;;;;;;;;;;;;;;11.37;62.60;102219.84;4958739;28;124641;-68
2022/11/30 03:22:00;;;;;;;;;;;;;;;11.34;62.56;102219.94;4958987;28;120450;-68
2022/11/30 03:24:26;;;;;;;;;;;;;;;11.33;62.55;102228.78;4956538;28;120569;-69
2022/11/30 03:26:53;;;;;;;;;;;;;;;11.32;62.71;102216.47;4943019;28;124379;-69
2022/11/30 03:29:20;;;;;;;;;;;;;;;11.30;62.63;102229.75;4964684;28;125644;-69
2022/11/30 03:31:47;;;;;;;;;;;;;;;11.29;62.64;102222.69;4957064;28;119310;-69
2022/11/30 03:34:14;;;;;;;;;;;;;;;11.28;62.60;102225.38;4957785;28;119420;-69
2022/11/30 03:36:41;;;;;;;;;;;;;;;11.27;62.55;102229.81;4956581;28;124261;-68
2022/11/30 03:39:08;;;;;;;;;;;;;;;11.27;62.59;102228.97;4957521;28;125056;-69
2022/11/30 03:41:35;;;;;;;;;;;;;;;11.25;62.76;102226.34;4956622;28;119464;-69
2022/11/30 03:44:02;;;;;;;;;;;;;;;11.24;62.71;102226.38;4959486;28;118686;-69
2022/11/30 03:46:29;;;;;;;;;;;;;;;11.22;62.77;102220.25;4960580;28;124348;-68
2022/11/30 03:48:56;;;;;;;;;;;;;;;11.23;62.47;102222.00;4958253;28;124435;-69
2022/11/30 03:51:23;;;;;;;;;;;;;;;11.22;62.62;102225.53;4955134;28;119708;-69
2022/11/30 03:53:50;;;;;;;;;;;;;;;11.20;62.79;102232.69;4939472;28;118843;-69
2022/11/30 03:56:17;;;;;;;;;;;;;;;11.20;62.52;102232.69;4963608;28;124498;-69
2022/11/30 03:58:43;;;;;;;;;;;;;;;11.18;62.71;102235.34;4941488;28;122922;-69
2022/11/30 04:01:12;;;;;;;;;;;;;;;11.17;62.60;102232.75;4961091;28;119486;-69
2022/11/30 04:03:39;;;;;;;;;;;;;;;11.17;62.76;102232.75;4954668;28;119511;-69
2022/11/30 04:06:07;;;;;;;;;;;;;;;11.17;62.79;102240.69;4965348;28;124311;-69
2022/11/30 04:08:34;;;;;;;;;;;;;;;11.16;62.58;102241.63;4960014;28;124070;-69
2022/11/30 04:11:02;;;;;;;;;;;;;;;11.15;62.52;102239.88;4950305;28;119517;-69
2022/11/30 04:13:29;;;;;;;;;;;;;;;11.14;62.73;102240.78;4962323;28;120210;-69
2022/11/30 04:15:56;;;;;;;;;;;;;;;11.14;62.74;102238.13;4957260;28;124602;-69
2022/11/30 04:18:24;;;;;;;;;;;;;;;11.13;62.61;102247.00;4958750;28;124634;-69
2022/11/30 04:20:52;;;;;;;;;;;;;;;11.13;62.75;102247.00;4943046;28;120399;-69
2022/11/30 04:23:19;;;;;;;;;;;;;;;11.13;62.58;102252.28;4948791;28;118161;-69
2022/11/30 04:25:46;;;;;;;;;;;;;;;11.12;62.62;102245.25;4952070;28;124588;-69
2022/11/30 04:28:14;;;;;;;;;;;;;;;11.11;62.70;102244.38;4958962;28;124185;-69
2022/11/30 04:30:42;;;;;;;;;;;;;;;11.12;62.73;102234.66;4960142;28;120322;-69
2022/11/30 04:33:09;;;;;;;;;;;;;;;11.09;62.61;102241.78;4945038;28;118139;-69
2022/11/30 04:35:40;;;;;;;;;;;;;;;11.08;62.54;102240.03;4959215;28;124697;-69
2022/11/30 04:38:07;;;;;;;;;;;;;;;11.07;62.51;102238.28;4955204;28;124776;-69
2022/11/30 04:40:37;;;;;;;;;;;;;;;11.04;62.54;102230.41;4940904;28;119235;-68
2022/11/30 04:43:04;;;;;;;;;;;;;;;11.02;62.60;102240.19;4957577;28;118620;-69
2022/11/30 04:45:31;;;;;;;;;;;;;;;11.01;62.75;102233.13;4960119;28;124545;-68
2022/11/30 04:48:02;;;;;;;;;;;;;;;10.99;62.73;102237.59;4963955;28;125093;-69
2022/11/30 04:50:29;;;;;;;;;;;;;;;10.97;62.52;102242.06;4955647;28;119863;-69
2022/11/30 04:52:56;;;;;;;;;;;;;;;10.97;62.59;102235.91;4969062;28;119507;-69
2022/11/30 04:55:23;;;;;;;;;;;;;;;10.95;62.52;102233.28;4960321;28;124096;-69
2022/11/30 04:57:50;;;;;;;;;;;;;;;10.94;62.70;102236.81;4965603;28;124211;-69
2022/11/30 05:00:20;;;;;;;;;;;;;;;10.93;62.62;102235.09;4940876;28;120237;-68
2022/11/30 05:02:47;;;;;;;;;;;;;;;10.92;62.73;102233.34;4964526;28;119700;-68
2022/11/30 05:05:19;;;;;;;;;;;;;;;10.92;62.53;102238.66;4958135;28;125227;-69
2022/11/30 05:07:50;;;;;;;;;;;;;;;10.91;62.47;102236.91;4946302;28;123429;-69
2022/11/30 05:10:17;;;;;;;;;;;;;;;10.89;62.46;102238.75;4945679;28;119249;-69
2022/11/30 05:12:44;;;;;;;;;;;;;;;10.86;62.47;102244.09;4965487;28;118657;-69
2022/11/30 05:15:11;;;;;;;;;;;;;;;10.83;62.38;102239.75;4949217;28;123247;-68
2022/11/30 05:17:38;;;;;;;;;;;;;;;10.80;62.41;102238.97;4966708;28;124585;-69
2022/11/30 05:20:05;;;;;;;;;;;;;;;10.77;62.56;102244.31;4931730;28;118886;-69
2022/11/30 05:22:34;;;;;;;;;;;;;;;10.74;62.40;102244.38;4959308;28;119498;-69
2022/11/30 05:25:01;;;;;;;;;;;;;;;10.70;62.46;102244.47;4958072;28;124238;-68
2022/11/30 05:27:28;;;;;;;;;;;;;;;10.67;62.28;102238.38;4948311;28;124105;-69
2022/11/30 05:29:55;;;;;;;;;;;;;;;10.63;62.51;102250.81;4961064;28;119953;-69
2022/11/30 05:32:21;;;;;;;;;;;;;;;10.59;62.24;102250.94;4951117;28;118163;-69
2022/11/30 05:34:48;;;;;;;;;;;;;;;10.53;62.23;102251.94;4961984;28;124186;-69
2022/11/30 05:37:18;;;;;;;;;;;;;;;10.49;62.18;102256.41;4961575;28;124584;-69
2022/11/30 05:39:45;;;;;;;;;;;;;;;10.44;62.35;102252.13;4964980;28;119734;-69
2022/11/30 05:42:12;;;;;;;;;;;;;;;10.37;62.32;102261.09;4942598;28;118888;-69
2022/11/30 05:44:39;;;;;;;;;;;;;;;10.31;62.16;102260.31;4960491;28;124575;-69
2022/11/30 05:47:05;;;;;;;;;;;;;;;10.25;62.32;102263.06;4962741;28;123874;-69
2022/11/30 05:49:32;;;;;;;;;;;;;;;10.19;62.35;102263.22;4960798;28;121013;-69
2022/11/30 05:51:59;;;;;;;;;;;;;;;10.14;62.29;102265.06;4961538;28;119583;-69
2022/11/30 05:54:26;;;;;;;;;;;;;;;10.09;62.27;102257.22;4960823;28;124190;-69
2022/11/30 05:56:53;;;;;;;;;;;;;;;10.04;62.26;102263.50;4966918;28;123886;-69
2022/11/30 05:59:21;;;;;;;;;;;;;;;10.00;62.20;102268.00;4926757;28;118892;-68
2022/11/30 06:01:50;;;;;;;;;;;;;;;9.94;62.57;102274.28;4963489;28;118782;-69
2022/11/30 06:04:18;;;;;;;;;;;;;;;9.92;62.54;102269.91;4964537;28;125005;-69
2022/11/30 06:06:46;;;;;;;;;;;;;;;9.88;62.63;102274.38;4938186;28;123647;-69
2022/11/30 06:09:13;;;;;;;;;;;;;;;9.87;62.50;102271.75;4956449;28;119341;-69
2022/11/30 06:11:40;;;;;;;;;;;;;;;9.84;62.46;102275.34;4943823;28;120726;-69
2022/11/30 06:14:07;;;;;;;;;;;;;;;9.83;62.49;102276.28;4966234;28;124354;-69
2022/11/30 06:16:34;;;;;;;;;;;;;;;9.81;62.49;102272.75;4965162;28;124479;-69
2022/11/30 06:19:00;;;;;;;;;;;;;;;9.79;62.75;102274.56;4952743;28;120149;-68
2022/11/30 06:21:27;;;;;;;;;;;;;;;9.79;62.54;102279.84;4961859;28;118579;-69
2022/11/30 06:23:54;;;;;;;;;;;;;;;9.77;62.51;102281.66;4967013;28;124083;-68
2022/11/30 06:26:21;;;;;;;;;;;;;;;9.74;62.38;102276.44;4954137;28;123959;-68
2022/11/30 06:28:48;;;;;;;;;;;;;;;9.70;62.48;102280.03;4958624;28;119288;-69
2022/11/30 06:31:15;;;;;;;;;;;;;;;9.66;62.24;102275.69;4962755;28;118596;-69
2022/11/30 06:33:42;;;;;;;;;;;;;;;9.63;62.49;102283.69;4963456;28;124421;-69
2022/11/30 06:36:09;;;;;;;;;;;;;;;9.60;62.33;102283.75;4964316;28;124592;-68
2022/11/30 06:38:36;;;;;;;;;;;;;;;9.57;62.37;102286.44;4946357;28;120809;-69
2022/11/30 06:41:04;;;;;;;;;;;;;;;9.53;62.40;102282.97;4941544;28;118727;-69
2022/11/30 06:43:35;;;;;;;;;;;;;;;9.52;62.74;102292.69;4963663;28;124065;-68
2022/11/30 06:46:02;;;;;;;;;;;;;;;9.49;62.44;102282.19;4956644;28;124001;-68
2022/11/30 06:48:30;;;;;;;;;;;;;;;9.46;62.58;102292.78;4961757;28;118662;-68
2022/11/30 06:50:57;;;;;;;;;;;;;;;9.44;62.45;102288.44;4946051;28;119231;-69
2022/11/30 06:53:24;;;;;;;;;;;;;;;9.42;62.65;102296.41;4957032;28;124833;-69
2022/11/30 06:55:52;;;;;;;;;;;;;;;9.40;62.62;102292.91;4946199;28;124189;-69
2022/11/30 06:58:19;;;;;;;;;;;;;;;9.37;62.73;102298.22;4958089;28;120764;-69
2022/11/30 07:00:46;;;;;;;;;;;;;;;9.38;62.88;102299.09;4956842;28;118737;-68
2022/11/30 07:03:13;;;;;;;;;;;;;;;9.37;62.30;102303.53;4938574;28;124088;-69
2022/11/30 07:05:44;;;;;;;;;;;;;;;9.36;62.47;102307.06;4943571;28;124276;-69
2022/11/30 07:08:13;;;;;;;;;;;;;;;9.34;62.46;102306.19;4958001;28;119508;-69
2022/11/30 07:10:43;;;;;;;;;;;;;;;9.34;62.66;102314.13;4941078;28;117694;-69
2022/11/30 07:13:16;;;;;;;;;;;;;;;9.33;62.55;102307.13;4934768;28;124608;-68
2022/11/30 07:15:44;;;;;;;;;;;;;;;9.31;62.74;102308.91;4934874;28;124063;-69
2022/11/30 07:18:11;;;;;;;;;;;;;;;9.29;62.54;102308.06;4940055;28;119736;-68
2022/11/30 07:20:38;;;;;;;;;;;;;;;9.29;62.67;102310.72;4961481;28;118806;-69
2022/11/30 07:26:13;;;;;;;;;;;;;;;9.25;62.59;102319.56;4948122;28;124146;-68
2022/11/30 07:28:40;;;;;;;;;;;;;;;9.24;62.62;102323.13;4961651;28;120894;-69
2022/11/30 07:31:14;;;;;;;;;;;;;;;9.22;62.78;102335.50;4947325;28;120752;-69
2022/11/30 07:33:42;;;;;;;;;;;;;;;9.21;62.72;102333.72;4948594;28;124835;-69
2022/11/30 07:36:10;;;;;;;;;;;;;;;9.21;62.72;102344.31;4937802;28;124722;-69
2022/11/30 07:38:37;;;;;;;;;;;;;;;9.20;62.35;102342.59;4938991;28;120134;-68
2022/11/30 07:41:04;;;;;;;;;;;;;;;9.16;62.44;102353.19;4952231;28;119162;-69
2022/11/30 07:43:31;;;;;;;;;;;;;;;9.13;62.39;102347.94;4940928;28;124367;-68
2022/11/30 07:45:59;;;;;;;;;;;;;;;9.12;62.27;102346.22;4933144;28;124144;-69
2022/11/30 07:48:26;;;;;;;;;;;;;;;9.11;62.42;102354.16;4934580;28;119877;-68
2022/11/30 07:50:53;;;;;;;;;;;;;;;9.09;62.55;102354.16;4937017;28;119436;-68
2022/11/30 07:53:20;;;;;;;;;;;;;;;9.08;62.42;102360.38;4946843;28;125115;-69
2022/11/30 07:55:47;;;;;;;;;;;;;;;9.07;62.59;102363.88;4962842;28;124124;-69
2022/11/30 07:58:21;;;;;;;;;;;;;;;9.05;62.46;102360.41;4963196;28;119599;-69
2022/11/30 08:00:48;;;;;;;;;;;;;;;9.04;62.59;102363.97;4946597;28;117987;-68
2022/11/30 08:03:15;;;;;;;;;;;;;;;9.03;62.53;102362.19;4931895;28;123124;-69
2022/11/30 08:05:41;;;;;;;;;;;;;;;9.03;62.65;102359.56;4962487;28;124012;-68
2022/11/30 08:08:08;;;;;;;;;;;;;;;9.02;62.28;102368.34;4949640;28;119412;-68
2022/11/30 08:10:35;;;;;;;;;;;;;;;9.01;62.57;102374.56;4953252;28;120090;-68
2022/11/30 08:13:02;;;;;;;;;;;;;;;9.01;62.51;102369.28;4966543;28;123675;-68
2022/11/30 08:15:29;;;;;;;;;;;;;;;9.03;62.71;102377.19;4952597;28;123655;-69
2022/11/30 08:18:04;;;;;;;;;;;;;;;9.03;62.53;102382.47;4943523;28;122078;-69
2022/11/30 08:20:30;;;;;;;;;;;;;;;9.02;62.81;102376.28;4950084;28;120206;-68
2022/11/30 08:22:58;;;;;;;;;;;;;;;9.02;62.78;102376.28;4955167;28;124390;-69
2022/11/30 08:25:25;;;;;;;;;;;;;;;9.03;62.77;102378.06;4932631;28;123712;-68
2022/11/30 08:27:52;;;;;;;;;;;;;;;9.04;62.81;102374.53;4957559;28;119469;-69
2022/11/30 08:30:18;;;;;;;;;;;;;;;9.07;62.67;102382.38;4945686;28;119615;-68
2022/11/30 08:32:45;;;;;;;;;;;;;;;9.09;62.83;102383.25;4941792;28;124452;-69
2022/11/30 08:35:12;;;;;;;;;;;;;;;9.14;62.88;102391.13;4957189;28;123666;-69
2022/11/30 08:37:39;;;;;;;;;;;;;;;9.19;63.08;102394.56;4968671;28;120012;-69
2022/11/30 08:40:06;;;;;;;;;;;;;;;9.22;62.59;102393.66;4928502;28;119412;-69
2022/11/30 08:42:33;;;;;;;;;;;;;;;9.26;62.95;102395.34;4962131;28;124877;-69
2022/11/30 08:45:00;;;;;;;;;;;;;;;9.30;62.63;102402.34;4955334;28;123995;-69
2022/11/30 08:47:28;;;;;;;;;;;;;;;9.31;62.94;102397.03;4935071;28;120675;-68
2022/11/30 08:49:56;;;;;;;;;;;;;;;9.35;62.92;102396.09;4924884;28;118176;-68
2022/11/30 08:52:23;;;;;;;;;;;;;;;9.39;62.93;102396.91;4958196;28;124373;-68
2022/11/30 08:54:50;;;;;;;;;;;;;;;9.44;63.04;102394.22;4957354;28;123976;-68
2022/11/30 08:57:19;;;;;;;;;;;;;;;9.49;62.72;102395.91;4943445;28;119672;-68
2022/11/30 08:59:46;;;;;;;;;;;;;;;9.54;62.79;102391.38;4941992;28;119371;-68
2022/11/30 09:02:18;;;;;;;;;;;;;;;9.59;62.95;102393.97;4956528;28;124605;-68
2022/11/30 09:04:47;;;;;;;;;;;;;;;9.63;62.90;102394.81;4926942;28;124878;-68
2022/11/30 09:07:14;;;;;;;;;;;;;;;9.66;62.79;102400.91;4957404;28;120272;-68
2022/11/30 09:09:41;;;;;;;;;;;;;;;9.70;62.92;102409.66;4952189;28;118994;-68
2022/11/30 09:12:08;;;;;;;;;;;;;;;9.74;62.82;102414.03;4938170;28;124869;-68
2022/11/30 09:14:35;;;;;;;;;;;;;;;9.76;62.87;102417.50;4951165;28;124758;-68
2022/11/30 09:17:02;;;;;;;;;;;;;;;9.77;62.88;102416.59;4960854;28;120041;-70
2022/11/30 09:19:29;;;;;;;;;;;;;;;9.78;62.92;102415.72;4949778;28;118611;-68
2022/11/30 09:21:56;;;;;;;;;;;;;;;9.79;62.63;102417.44;4960029;28;124159;-68
2022/11/30 09:24:23;;;;;;;;;;;;;;;9.82;62.81;102422.69;4935177;28;123959;-68
2022/11/30 09:26:53;;;;;;;;;;;;;;;9.84;62.82;102431.47;4950664;28;119251;-68
2022/11/30 09:29:20;;;;;;;;;;;;;;;9.88;62.83;102427.88;4959815;28;119836;-68
2022/11/30 09:31:48;;;;;;;;;;;;;;;9.94;62.86;102425.16;4961743;28;128291;-68
2022/11/30 09:34:14;;;;;;;;;;;;;;;10.00;62.91;102425.91;4945170;28;124699;-68
2022/11/30 09:36:41;;;;;;;;;;;;;;;10.06;62.76;102433.78;4959730;28;119805;-68
2022/11/30 09:39:09;;;;;;;;;;;;;;;10.12;63.06;102436.31;4937839;28;118161;-68
2022/11/30 09:42:02;;;;;;;;;;;;;;;10.15;62.76;102430.94;4960570;28;124103;-68
2022/11/30 09:44:38;;;;;;;;;;;;;;;10.18;62.71;102433.56;4963305;28;123766;-68
2022/11/30 09:47:08;;;;;;;;;;;;;;;10.23;63.12;102431.69;4966237;28;118825;-68
2022/11/30 09:49:41;;;;;;;;;;;;;;;10.28;62.95;102427.22;4949853;28;120005;-68
2022/11/30 09:52:31;;;;;;;;;;;;;;;10.32;62.76;102420.97;4945433;28;124091;-68
2022/11/30 09:55:02;;;;;;;;;;;;;;;10.36;62.72;102418.25;4929359;28;125179;-69
2022/11/30 09:57:32;;;;;;;;;;;;;;;10.38;62.71;102416.44;4936623;28;118812;-68
2022/11/30 10:00:01;;;;;;;;;;;;;;;10.41;62.79;102421.69;4952250;28;119469;-68
2022/11/30 10:02:38;;;;;;;;;;;;;;;10.43;62.99;102414.59;4944760;28;125381;-68
2022/11/30 10:05:11;;;;;;;;;;;;;;;10.46;62.82;102414.53;4962951;28;125502;-68
2022/11/30 10:07:56;;;;;;;;;;;;;;;10.48;63.00;102418.03;4940622;28;119376;-68
2022/11/30 10:10:29;;;;;;;;;;;;;;;10.52;62.87;102417.06;4957791;28;118886;-68
2022/11/30 10:13:06;;;;;;;;;;;;;;;10.55;62.83;102413.47;4971918;28;125514;-68
2022/11/30 10:15:59;;;;;;;;;;;;;;;10.57;62.82;102412.56;4955128;28;127243;-68
2022/11/30 10:18:35;;;;;;;;;;;;;;;10.58;63.02;102403.69;4950093;28;119862;-68
2022/11/30 10:21:05;;;;;;;;;;;;;;;10.61;62.97;102403.63;4950660;28;118975;-69
2022/11/30 10:23:51;;;;;;;;;;;;;;;10.63;62.82;102401.84;4947655;28;124991;-68
2022/11/30 10:26:22;;;;;;;;;;;;;;;10.67;62.78;102408.81;4954085;28;124884;-68
2022/11/30 10:28:50;;;;;;;;;;;;;;;10.68;62.92;102405.28;4957665;28;120303;-68
2022/11/30 10:31:19;;;;;;;;;;;;;;;10.71;62.77;102405.19;4958446;28;118938;-69
2022/11/30 10:33:50;;;;;;;;;;;;;;;10.75;62.89;102394.53;4938084;28;124784;-68
2022/11/30 10:36:32;;;;;;;;;;;;;;;10.78;62.91;102400.66;4930932;28;124368;-68
2022/11/30 10:39:01;;;;;;;;;;;;;;;10.81;63.03;102397.03;4938979;28;120727;-69
2022/11/30 10:41:30;;;;;;;;;;;;;;;10.85;63.06;102401.38;4937755;28;118488;-68
2022/11/30 10:44:05;;;;;;;;;;;;;;;10.88;62.95;102396.88;4947557;28;124271;-68
2022/11/30 10:46:37;;;;;;;;;;;;;;;10.91;63.03;102398.63;4955305;28;124132;-68
2022/11/30 10:49:06;;;;;;;;;;;;;;;10.94;62.94;102395.00;4929982;28;120424;-68
2022/11/30 10:51:36;;;;;;;;;;;;;;;10.97;62.89;102389.66;4952689;28;119545;-68
2022/11/30 10:54:11;;;;;;;;;;;;;;;11.01;62.84;102392.19;4956298;28;124542;-68
2022/11/30 10:56:38;;;;;;;;;;;;;;;11.04;62.90;102392.13;4950600;28;124957;-68
2022/11/30 10:59:20;;;;;;;;;;;;;;;11.08;62.99;102388.50;4932978;28;120180;-68
2022/11/30 11:01:47;;;;;;;;;;;;;;;11.12;62.87;102383.16;4953831;28;118805;-69
2022/11/30 11:04:16;;;;;;;;;;;;;;;11.16;63.13;102390.13;4946086;28;123913;-69
2022/11/30 11:06:47;;;;;;;;;;;;;;;11.18;62.97;102388.31;4947437;28;124873;-68
2022/11/30 11:09:30;;;;;;;;;;;;;;;11.19;62.91;102384.72;4938143;28;119817;-68
2022/11/30 11:11:58;;;;;;;;;;;;;;;11.20;62.92;102383.84;4940865;28;119565;-68
2022/11/30 11:14:26;;;;;;;;;;;;;;;11.22;63.02;102388.19;4951002;28;125348;-68
2022/11/30 11:16:55;;;;;;;;;;;;;;;11.25;62.91;102384.59;4963014;28;124503;-67
2022/11/30 11:19:25;;;;;;;;;;;;;;;11.26;62.98;102376.63;4955337;28;119733;-67
2022/11/30 11:21:52;;;;;;;;;;;;;;;11.29;62.90;102380.97;4955953;28;119354;-68
2022/11/30 11:24:24;;;;;;;;;;;;;;;11.31;62.86;102379.16;4964958;28;123961;-68
2022/11/30 11:26:52;;;;;;;;;;;;;;;11.32;62.80;102377.38;4950881;28;124403;-68
2022/11/30 11:29:30;;;;;;;;;;;;;;;11.34;62.84;102389.69;4955954;28;119364;-68
2022/11/30 11:32:17;;;;;;;;;;;;;;;11.37;62.76;102386.97;4955382;28;119086;-68
2022/11/30 11:34:44;;;;;;;;;;;;;;;11.40;62.75;102384.25;4958422;28;124966;-68
2022/11/30 11:37:27;;;;;;;;;;;;;;;11.45;62.90;102376.16;4957428;28;124224;-68
2022/11/30 11:39:54;;;;;;;;;;;;;;;11.46;62.85;102384.09;4957166;28;120258;-67
2022/11/30 11:42:21;;;;;;;;;;;;;;;11.49;62.91;102384.03;4948917;28;119527;-67
2022/11/30 11:44:49;;;;;;;;;;;;;;;11.55;62.72;102392.75;4948426;28;122484;-67
2022/11/30 11:47:21;;;;;;;;;;;;;;;11.61;63.04;102387.28;4953256;28;124753;-68
2022/11/30 11:49:49;;;;;;;;;;;;;;;11.68;63.26;102378.28;4958653;28;119660;-68
2022/11/30 11:52:16;;;;;;;;;;;;;;;11.75;63.18;102390.47;4959623;28;118486;-68
2022/11/30 11:54:50;;;;;;;;;;;;;;;11.81;63.05;102385.00;4933187;28;124237;-68
2022/11/30 11:57:20;;;;;;;;;;;;;;;11.85;63.13;102386.69;4954631;28;124122;-68
2022/11/30 11:59:46;;;;;;;;;;;;;;;11.90;62.82;102383.06;4953927;28;118973;-67
2022/11/30 12:02:17;;;;;;;;;;;;;;;11.91;62.82;102388.34;4930600;28;117976;-67
2022/11/30 12:04:44;;;;;;;;;;;;;;;11.93;62.67;102383.00;4936784;28;124255;-68
2022/11/30 12:07:23;;;;;;;;;;;;;;;11.94;62.51;102385.63;4947251;28;124267;-68
2022/11/30 12:09:54;;;;;;;;;;;;;;;11.95;62.63;102386.47;4948209;28;119179;-67
2022/11/30 12:12:20;;;;;;;;;;;;;;;11.95;62.64;102382.03;4941823;28;117613;-68
2022/11/30 12:14:47;;;;;;;;;;;;;;;11.96;62.73;102374.94;4945796;28;124604;-68
2022/11/30 12:17:37;;;;;;;;;;;;;;;11.98;62.60;102381.06;4936975;28;124005;-68
2022/11/30 12:20:13;;;;;;;;;;;;;;;11.99;62.75;102372.19;4928929;28;119185;-67
2022/11/30 12:22:39;;;;;;;;;;;;;;;12.01;62.75;102373.03;4942507;28;117492;-68
2022/11/30 12:25:15;;;;;;;;;;;;;;;12.05;62.88;102372.03;4932925;28;125152;-68
2022/11/30 12:27:42;;;;;;;;;;;;;;;12.10;62.85;102374.59;4951275;28;124462;-67
2022/11/30 12:30:14;;;;;;;;;;;;;;;12.14;62.91;102382.41;4932867;28;120742;-67
2022/11/30 12:32:54;;;;;;;;;;;;;;;12.20;62.86;102382.22;4931328;28;119724;-67
2022/11/30 12:35:25;;;;;;;;;;;;;;;12.27;62.82;102374.97;4928410;28;124179;-67
2022/11/30 12:38:11;;;;;;;;;;;;;;;12.31;62.71;102378.44;4928761;28;124745;-67
2022/11/30 12:40:48;;;;;;;;;;;;;;;12.33;62.75;102377.47;4954034;28;119622;-66
2022/11/30 12:43:24;;;;;;;;;;;;;;;12.34;62.48;102378.31;4958628;28;118976;-67